sensor_id;sensor_type;location;lat;lon;timestamp;pressure;altitude;pressure_sealevel;temperature;humidity
18472;BME280;9365;48.258;12.518;2022-07-23T00:00:40;1019.7147538170029;;;24.3;71.55760831440942
18472;BME280;9365;48.258;12.518;2022-07-23T00:01:41;1019.6721232095737;;;24.32;70.68568276755983
18472;BME280;9365;48.258;12.518;2022-07-23T00:02:42;1019.6880175458122;;;24.34;70.03157668580022
18472;BME280;9365;48.258;12.518;2022-07-23T00:03:42;1019.6783088663839;;;24.35;70.17620800625365
18472;BME280;9365;48.258;12.518;2022-07-23T00:04:43;1019.690854161942;;;24.36;70.36860012814972
18472;BME280;9365;48.258;12.518;2022-07-23T00:05:44;1019.6958695493574;;;24.35;70.187049768821
18472;BME280;9365;48.258;12.518;2022-07-23T00:06:45;1019.7050666128193;;;24.35;69.88310164627988
18472;BME280;9365;48.258;12.518;2022-07-23T00:07:46;1019.7184454937677;;;24.35;70.04831019801283
18472;BME280;9365;48.258;12.518;2022-07-23T00:08:47;1019.7042331990855;;;24.36;70.07550557360562
18472;BME280;9365;48.258;12.518;2022-07-23T00:09:48;1019.6239590535326;;;24.36;70.21406255429714
18472;BME280;9365;48.258;12.518;2022-07-23T00:10:49;1019.6707907779079;;;24.38;70.32744655997439
18472;BME280;9365;48.258;12.518;2022-07-23T00:11:50;1019.6482133880033;;;24.38;70.25302295750583
18472;BME280;9365;48.258;12.518;2022-07-23T00:12:50;1019.612256259293;;;24.38;70.56228912672515
18472;BME280;9365;48.258;12.518;2022-07-23T00:13:52;1019.5629192716614;;;24.39;70.59444758429575
18472;BME280;9365;48.258;12.518;2022-07-23T00:14:53;1019.5537207929117;;;24.39;70.31219729028807
18472;BME280;9365;48.258;12.518;2022-07-23T00:15:54;1019.5361601258195;;;24.39;70.40793671528724
18472;BME280;9365;48.258;12.518;2022-07-23T00:16:55;1019.4993652230544;;;24.4;70.36071412273037
18472;BME280;9365;48.258;12.518;2022-07-23T00:17:56;1019.4951843787641;;;24.39;70.41382091162507
18472;BME280;9365;48.258;12.518;2022-07-23T00:18:56;1019.5052200786998;;;24.38;70.4983434620812
18472;BME280;9365;48.258;12.518;2022-07-23T00:19:58;1019.4558828119976;;;24.39;70.62109114755725
18472;BME280;9365;48.258;12.518;2022-07-23T00:20:59;1019.3848047698366;;;24.38;70.6475481165617
18472;BME280;9365;48.258;12.518;2022-07-23T00:22:00;1019.3940037584434;;;24.38;70.45019813934555
18472;BME280;9365;48.258;12.518;2022-07-23T00:23:01;1019.3764439501102;;;24.38;70.1409240283763
18472;BME280;9365;48.258;12.518;2022-07-23T00:24:02;1019.337144437322;;;24.37;69.34621772398151
18472;BME280;9365;48.258;12.518;2022-07-23T00:25:03;1019.2761065668188;;;24.36;68.6682952714069
18472;BME280;9365;48.258;12.518;2022-07-23T00:26:04;1019.2493488275342;;;24.36;68.64696936600056
18472;BME280;9365;48.258;12.518;2022-07-23T00:27:05;1019.1607165236559;;;24.35;67.8041469761563
18472;BME280;9365;48.258;12.518;2022-07-23T00:28:06;1019.1648961243392;;;24.36;67.2656613315202
18472;BME280;9365;48.258;12.518;2022-07-23T00:29:06;1019.0929821091431;;;24.36;66.62588920286628
18472;BME280;9365;48.258;12.518;2022-07-23T00:30:08;1019.0879617364116;;;24.37;66.40214796446124
18472;BME280;9365;48.258;12.518;2022-07-23T00:31:09;1019.075424024688;;;24.36;66.8924499513128
18472;BME280;9365;48.258;12.518;2022-07-23T00:32:10;1019.0193824326988;;;24.38;66.74456641415037
18472;BME280;9365;48.258;12.518;2022-07-23T00:33:11;1019.0185397795293;;;24.39;66.8624247918463
18472;BME280;9365;48.258;12.518;2022-07-23T00:34:12;1018.9683572131297;;;24.4;66.80440150828531
18472;BME280;9365;48.258;12.518;2022-07-23T00:35:13;1018.9315525064117;;;24.41;66.16479645713557
18472;BME280;9365;48.258;12.518;2022-07-23T00:36:13;1018.8646534715781;;;24.41;67.46653816266678
18472;BME280;9365;48.258;12.518;2022-07-23T00:37:14;1018.846250029767;;;24.42;67.82423628576822
18472;BME280;9365;48.258;12.518;2022-07-23T00:38:15;1018.7300087666489;;;24.42;67.66973174283115
18472;BME280;9365;48.258;12.518;2022-07-23T00:39:16;1018.6622612303644;;;24.43;67.89425390766505
18472;BME280;9365;48.258;12.518;2022-07-23T00:40:17;1018.6413749484346;;;24.41;67.64272410765923
18472;BME280;9365;48.258;12.518;2022-07-23T00:41:18;1018.5610964695281;;;24.41;68.08006106759815
18472;BME280;9365;48.258;12.518;2022-07-23T00:42:19;1018.4992242422823;;;24.41;68.35702031740688
18472;BME280;9365;48.258;12.518;2022-07-23T00:43:20;1018.503400910313;;;24.41;69.14631992311057
18472;BME280;9365;48.258;12.518;2022-07-23T00:44:21;1018.4866942882447;;;24.4;69.63071128575454
18472;BME280;9365;48.258;12.518;2022-07-23T00:45:22;1018.4256737553154;;;24.39;69.53919233857003
18472;BME280;9365;48.258;12.518;2022-07-23T00:46:24;1018.4558281254248;;;24.36;69.51571027595062
18472;BME280;9365;48.258;12.518;2022-07-23T00:47:25;1018.4831119184216;;;24.35;69.84559945789503
18472;BME280;9365;48.258;12.518;2022-07-23T00:48:26;1018.5023622410667;;;24.34;69.82337252684502
18472;BME280;9365;48.258;12.518;2022-07-23T00:49:28;1018.4739709037852;;;24.31;69.8055671620329
18472;BME280;9365;48.258;12.518;2022-07-23T00:50:29;1018.4789945478833;;;24.31;69.741254889649
18472;BME280;9365;48.258;12.518;2022-07-23T00:51:30;1018.5642820579202;;;24.3;69.71957582326064
18472;BME280;9365;48.258;12.518;2022-07-23T00:52:31;1018.4536117604215;;;24.29;69.76679715111523
18472;BME280;9365;48.258;12.518;2022-07-23T00:53:32;1018.5107726710711;;;24.3;70.1671895455942
18472;BME280;9365;48.258;12.518;2022-07-23T00:54:34;1018.4753427634106;;;24.3;70.18812101965739
18472;BME280;9365;48.258;12.518;2022-07-23T00:55:35;1018.4268575813352;;;24.29;70.41685895064298
18472;BME280;9365;48.258;12.518;2022-07-23T00:56:36;1018.3574902753375;;;24.27;69.49908160372713
18472;BME280;9365;48.258;12.518;2022-07-23T00:57:38;1018.4109970384224;;;24.27;69.5150688789648
18472;BME280;9365;48.258;12.518;2022-07-23T00:58:39;1018.3458074575798;;;24.26;69.5992492083969
18472;BME280;9365;48.258;12.518;2022-07-23T00:59:43;1018.3892669175813;;;24.27;69.88771916341477
18472;BME280;9365;48.258;12.518;2022-07-23T01:00:44;1018.4352651096859;;;24.25;69.94541835501713
18472;BME280;9365;48.258;12.518;2022-07-23T01:01:45;1018.4085124535475;;;24.25;69.43387375705872
18472;BME280;9365;48.258;12.518;2022-07-23T01:02:46;1018.3801203669806;;;24.23;69.14964369995707
18472;BME280;9365;48.258;12.518;2022-07-23T01:03:47;1018.339993070785;;;24.23;69.16030197034078
18472;BME280;9365;48.258;12.518;2022-07-23T01:04:48;1018.3040422915768;;;24.23;69.4695570448186
18472;BME280;9365;48.258;12.518;2022-07-23T01:05:49;1018.2786623298553;;;24.22;69.52707624975949
18472;BME280;9365;48.258;12.518;2022-07-23T01:06:50;1018.2928836938149;;;24.21;69.90482335043548
18472;BME280;9365;48.258;12.518;2022-07-23T01:07:51;1018.2686702509817;;;24.19;70.21215799748441
18472;BME280;9365;48.258;12.518;2022-07-23T01:08:52;1018.2085098760003;;;24.17;69.58740268118488
18472;BME280;9365;48.258;12.518;2022-07-23T01:09:54;1018.2453012706283;;;24.16;69.12314941010966
18472;BME280;9365;48.258;12.518;2022-07-23T01:10:55;1018.2636963831538;;;24.15;68.82972700445663
18472;BME280;9365;48.258;12.518;2022-07-23T01:11:56;1018.2202424171606;;;24.14;68.56791017119349
18472;BME280;9365;48.258;12.518;2022-07-23T01:12:57;1018.1458661346227;;;24.13;68.08207457178844
18472;BME280;9365;48.258;12.518;2022-07-23T01:13:58;1018.1675921616302;;;24.13;68.86579104622817
18472;BME280;9365;48.258;12.518;2022-07-23T01:14:59;1018.1283164868171;;;24.13;68.3323837954527
18472;BME280;9365;48.258;12.518;2022-07-23T01:16:00;1018.1241403682137;;;24.12;68.67325933308985
18472;BME280;9365;48.258;12.518;2022-07-23T01:17:01;1018.1433793134161;;;24.11;67.73443900856029
18472;BME280;9365;48.258;12.518;2022-07-23T01:18:02;1018.113824600757;;;24.09;66.41119588542566
18472;BME280;9365;48.258;12.518;2022-07-23T01:19:03;1018.1012960991493;;;24.08;65.48285384846321
18472;BME280;9365;48.258;12.518;2022-07-23T01:20:05;1018.1288849549928;;;24.08;64.85301198634266
18472;BME280;9365;48.258;12.518;2022-07-23T01:21:06;1018.1832175121732;;;24.07;63.73221420246271
18472;BME280;9365;48.258;12.518;2022-07-23T01:22:07;1018.1781982227591;;;24.07;63.743181514435385
18472;BME280;9365;48.258;12.518;2022-07-23T01:23:09;1018.1163561047495;;;24.07;62.88904938102454
18472;BME280;9365;48.258;12.518;2022-07-23T01:24:10;1018.0745509372446;;;24.08;62.86322070214781
18472;BME280;9365;48.258;12.518;2022-07-23T01:25:12;1018.1104924818846;;;24.08;62.24922701645432
18472;BME280;9365;48.258;12.518;2022-07-23T01:26:13;1018.1104924818846;;;24.08;62.30260978766167
18472;BME280;9365;48.258;12.518;2022-07-23T01:27:14;1018.1397260993552;;;24.1;62.11139805048413
18472;BME280;9365;48.258;12.518;2022-07-23T01:28:15;1018.2065907846815;;;24.1;62.12207553441503
18472;BME280;9365;48.258;12.518;2022-07-23T01:29:16;1018.2060685918517;;;24.11;61.98902884124849
18472;BME280;9365;48.258;12.518;2022-07-23T01:30:17;1018.2550630830265;;;24.1;61.85006334940731
18472;BME280;9365;48.258;12.518;2022-07-23T01:31:18;1018.3135745489847;;;24.1;61.9245366070437
18472;BME280;9365;48.258;12.518;2022-07-23T01:32:19;1018.2559058700306;;;24.1;61.86033026821518
18472;BME280;9365;48.258;12.518;2022-07-23T01:33:20;1018.2642593896161;;;24.1;61.58295592693942
18472;BME280;9365;48.258;12.518;2022-07-23T01:34:21;1018.2425329575582;;;24.1;61.822956237656825
18472;BME280;9365;48.258;12.518;2022-07-23T01:35:22;1018.1659492684365;;;24.11;61.823514608668305
18472;BME280;9365;48.258;12.518;2022-07-23T01:36:22;1018.1129802612724;;;24.1;62.48508986502973
18472;BME280;9365;48.258;12.518;2022-07-23T01:37:23;1018.1572753461777;;;24.1;62.05814841152108
18472;BME280;9365;48.258;12.518;2022-07-23T01:38:25;1018.2333366948595;;;24.1;62.06868777655821
18472;BME280;9365;48.258;12.518;2022-07-23T01:39:26;1018.2834939223674;;;24.09;61.80118892246009
18472;BME280;9365;48.258;12.518;2022-07-23T01:40:27;1018.3729261196929;;;24.09;62.14807505529279
18472;BME280;9365;48.258;12.518;2022-07-23T01:41:28;1018.4147247561195;;;24.07;62.22731656529107
18472;BME280;9365;48.258;12.518;2022-07-23T01:42:29;1018.4289368459313;;;24.06;62.21088424636685
18472;BME280;9365;48.258;12.518;2022-07-23T01:43:30;1018.486603823966;;;24.07;62.41920671831157
18472;BME280;9365;48.258;12.518;2022-07-23T01:44:31;1018.4606982248545;;;24.06;62.167900718664065
18472;BME280;9365;48.258;12.518;2022-07-23T01:45:32;1018.5116851574296;;;24.04;62.17760383879783
18472;BME280;9365;48.258;12.518;2022-07-23T01:46:32;1018.555978845507;;;24.04;62.20977058452601
18472;BME280;9365;48.258;12.518;2022-07-23T01:47:33;1018.579381228352;;;24.03;62.374681598860185
18472;BME280;9365;48.258;12.518;2022-07-23T01:48:34;1018.5935893756973;;;24.03;62.27818558168022
18472;BME280;9365;48.258;12.518;2022-07-23T01:49:35;1018.6253468849628;;;24.02;62.52876158365384
18472;BME280;9365;48.258;12.518;2022-07-23T01:50:36;1018.6621176562212;;;24.01;62.5815672113208
18472;BME280;9365;48.258;12.518;2022-07-23T01:51:37;1018.6662964019768;;;24.01;62.63507787128073
18472;BME280;9365;48.258;12.518;2022-07-23T01:52:38;1018.6261825402149;;;24.01;62.7471506514289
18472;BME280;9365;48.258;12.518;2022-07-23T01:53:39;1018.6629525448685;;;24.0;62.7198984051682
18472;BME280;9365;48.258;12.518;2022-07-23T01:54:39;1018.743179106526;;;24.0;62.53844803495709
18472;BME280;9365;48.258;12.518;2022-07-23T01:55:41;1018.7490253607456;;;23.99;62.54841589209622
18472;BME280;9365;48.258;12.518;2022-07-23T01:56:42;1018.8080315784084;;;23.98;62.52101590719221
18472;BME280;9365;48.258;12.518;2022-07-23T01:57:43;1018.8840754245485;;;23.97;62.51020160774234
18472;BME280;9365;48.258;12.518;2022-07-23T01:58:44;1018.9041179144987;;;23.95;62.87192822663641
18472;BME280;9365;48.258;12.518;2022-07-23T01:59:45;1018.9726272017781;;;23.94;62.972445200767474
18472;BME280;9365;48.258;12.518;2022-07-23T02:00:46;1019.013565154968;;;23.93;63.00936165835965
18472;BME280;9365;48.258;12.518;2022-07-23T02:01:47;1019.0737065178682;;;23.91;62.970864790238856
18472;BME280;9365;48.258;12.518;2022-07-23T02:02:48;1019.1647614712746;;;23.89;63.20992209128482
18472;BME280;9365;48.258;12.518;2022-07-23T02:03:49;1019.1939729689434;;;23.87;63.49665501554234
18472;BME280;9365;48.258;12.518;2022-07-23T02:04:50;1019.2875524319467;;;23.87;64.08332406468948
18472;BME280;9365;48.258;12.518;2022-07-23T02:05:51;1019.2637850960273;;;23.84;64.00685583179462
18472;BME280;9365;48.258;12.518;2022-07-23T02:06:52;1019.3489957525604;;;23.83;63.819910931903415
18472;BME280;9365;48.258;12.518;2022-07-23T02:07:53;1019.5018627415104;;;23.82;63.86716220502613
18472;BME280;9365;48.258;12.518;2022-07-23T02:08:54;1019.6146215495137;;;23.81;63.78109671750018
18472;BME280;9365;48.258;12.518;2022-07-23T02:09:55;1019.7180829082092;;;23.76;63.084892432963926
18472;BME280;9365;48.258;12.518;2022-07-23T02:10:56;1019.7059054128363;;;23.7;63.14569015049162
18472;BME280;9365;48.258;12.518;2022-07-23T02:11:57;1019.6816129356496;;;23.68;63.08573203999996
18472;BME280;9365;48.258;12.518;2022-07-23T02:12:58;1019.7315671618229;;;23.63;63.178806074049184
18472;BME280;9365;48.258;12.518;2022-07-23T02:13:58;1019.6684783608586;;;23.59;63.27257251774511
18472;BME280;9365;48.258;12.518;2022-07-23T02:14:59;1019.7620175304968;;;23.59;62.39287151125969
18472;BME280;9365;48.258;12.518;2022-07-23T02:16:00;1019.7043819856532;;;23.59;62.03545521970471
18472;BME280;9365;48.258;12.518;2022-07-23T02:17:01;1019.815468597685;;;23.59;62.088921426715984
18472;BME280;9365;48.258;12.518;2022-07-23T02:18:02;1019.7302985402047;;;23.6;62.33982995928257
18472;BME280;9365;48.258;12.518;2022-07-23T02:19:03;1019.8421941621273;;;23.59;62.60082156678935
18472;BME280;9365;48.258;12.518;2022-07-23T02:20:05;1019.7829415663238;;;23.6;62.78814774273871
18472;BME280;9365;48.258;12.518;2022-07-23T02:21:06;1019.9123867838459;;;23.6;62.81999482618967
18472;BME280;9365;48.258;12.518;2022-07-23T02:22:07;1019.9148063683388;;;23.58;62.93066303461121
18472;BME280;9365;48.258;12.518;2022-07-23T02:23:08;1019.8969364656091;;;23.58;63.16507192101303
18472;BME280;9365;48.258;12.518;2022-07-23T02:24:09;1019.8734359072396;;;23.54;63.1793204998405
18472;BME280;9365;48.258;12.518;2022-07-23T02:25:11;1019.8253042053132;;;23.49;62.728524854174125
18472;BME280;9365;48.258;12.518;2022-07-23T02:26:11;1019.8979002027129;;;23.48;62.58921873827547
18472;BME280;9365;48.258;12.518;2022-07-23T02:27:12;1019.815160070633;;;23.46;62.76945128359313
18472;BME280;9365;48.258;12.518;2022-07-23T02:28:13;1019.7716986953532;;;23.45;63.237881418548994
18472;BME280;9365;48.258;12.518;2022-07-23T02:29:14;1019.8835653849828;;;23.45;63.11501730025301
18472;BME280;9365;48.258;12.518;2022-07-23T02:30:16;1019.847671874319;;;23.45;62.87533228872385
18472;BME280;9365;48.258;12.518;2022-07-23T02:31:16;1019.9661267486371;;;23.42;62.99114058227141
18472;BME280;9365;48.258;12.518;2022-07-23T02:32:17;1019.9033343327682;;;23.38;61.651177614716474
18472;BME280;9365;48.258;12.518;2022-07-23T02:33:18;1019.8603518101453;;;23.37;61.367669344670084
18472;BME280;9365;48.258;12.518;2022-07-23T02:34:19;1019.8952498663938;;;23.33;60.662044534817454
18472;BME280;9365;48.258;12.518;2022-07-23T02:35:20;1019.9193739993663;;;23.31;60.431856911943896
18472;BME280;9365;48.258;12.518;2022-07-23T02:36:21;1019.9241556049471;;;23.27;59.661698583323705
18472;BME280;9365;48.258;12.518;2022-07-23T02:37:22;1019.9369796651099;;;23.23;59.462379904559064
18472;BME280;9365;48.258;12.518;2022-07-23T02:38:23;1019.9443434864311;;;23.2;59.050406933781694
18472;BME280;9365;48.258;12.518;2022-07-23T02:39:24;1020.0503871754928;;;23.21;59.194759283425675
18472;BME280;9365;48.258;12.518;2022-07-23T02:40:25;1020.0703059073757;;;23.19;59.135116416195906
18472;BME280;9365;48.258;12.518;2022-07-23T02:41:26;1020.049368573417;;;23.17;59.19848983235802
18472;BME280;9365;48.258;12.518;2022-07-23T02:42:27;1020.0619309483354;;;23.18;58.969560279657024
18472;BME280;9365;48.258;12.518;2022-07-23T02:43:28;1020.091012532411;;;23.16;58.67516510270838
18472;BME280;9365;48.258;12.518;2022-07-23T02:44:29;1020.1051566495021;;;23.15;58.37615285696647
18472;BME280;9365;48.258;12.518;2022-07-23T02:45:30;1020.0244788332034;;;23.11;58.4862326002913
18472;BME280;9365;48.258;12.518;2022-07-23T02:46:31;1019.985211206669;;;23.1;58.12857554702889
18472;BME280;9365;48.258;12.518;2022-07-23T02:47:32;1019.9650640834385;;;23.08;57.82365037826824
18472;BME280;9365;48.258;12.518;2022-07-23T02:48:33;1019.9975341994364;;;23.07;58.10571983034666
18472;BME280;9365;48.258;12.518;2022-07-23T02:49:34;1020.0433539203345;;;23.06;57.90782210832245
18472;BME280;9365;48.258;12.518;2022-07-23T02:50:35;1019.9226250649868;;;23.02;57.03665941926524
18472;BME280;9365;48.258;12.518;2022-07-23T02:51:36;1019.9088080654965;;;23.02;57.31968556582182
18472;BME280;9365;48.258;12.518;2022-07-23T02:52:37;1019.9221588479279;;;23.02;57.64500964167942
18472;BME280;9365;48.258;12.518;2022-07-23T02:53:38;1019.9760275838462;;;23.02;57.12199899906085
18472;BME280;9365;48.258;12.518;2022-07-23T02:54:39;1020.0427808478894;;;23.02;57.937949950157936
18472;BME280;9365;48.258;12.518;2022-07-23T02:55:40;1020.0310035069281;;;23.0;57.334661189391106
18472;BME280;9365;48.258;12.518;2022-07-23T02:56:41;1020.0652941111713;;;23.01;57.20189077213978
18472;BME280;9365;48.258;12.518;2022-07-23T02:57:42;1020.0652941111713;;;23.01;57.17522316719348
18472;BME280;9365;48.258;12.518;2022-07-23T02:58:43;1020.0702684922211;;;23.01;57.15899872673418
18472;BME280;9365;48.258;12.518;2022-07-23T02:59:44;1020.0618922842918;;;23.0;57.036103452050995
18472;BME280;9365;48.258;12.518;2022-07-23T03:00:45;1020.0878071816013;;;23.01;57.31377965133027
18472;BME280;9365;48.258;12.518;2022-07-23T03:01:45;1020.1145083423139;;;23.01;56.83374920497754
18472;BME280;9365;48.258;12.518;2022-07-23T03:02:46;1020.0310035069281;;;23.0;56.566602041118216
18472;BME280;9365;48.258;12.518;2022-07-23T03:03:47;1020.0158237488436;;;22.98;56.389488400315834
18472;BME280;9365;48.258;12.518;2022-07-23T03:04:48;1020.0425233461226;;;22.98;56.3628166714153
18472;BME280;9365;48.258;12.518;2022-07-23T03:05:49;1019.9692267049413;;;23.0;56.347672026478556
18472;BME280;9365;48.258;12.518;2022-07-23T03:06:50;1019.9215882776563;;;22.98;55.8243157663275
18472;BME280;9365;48.258;12.518;2022-07-23T03:07:51;1019.974201345813;;;22.99;55.34440888596945
18472;BME280;9365;48.258;12.518;2022-07-23T03:08:52;1019.9642518813421;;;23.0;55.93175483715109
18472;BME280;9365;48.258;12.518;2022-07-23T03:09:53;1019.9642518813421;;;23.0;54.9445709171238
18472;BME280;9365;48.258;12.518;2022-07-23T03:10:54;1020.0092773474712;;;23.0;54.84830764172598
18472;BME280;9365;48.258;12.518;2022-07-23T03:11:55;1019.9684395842564;;;23.0;55.243525573988585
18472;BME280;9365;48.258;12.518;2022-07-23T03:12:56;1019.8917364792077;;;23.01;55.28128556606226
18472;BME280;9365;48.258;12.518;2022-07-23T03:13:57;1019.8883374700781;;;23.0;54.80590701959006
18472;BME280;9365;48.258;12.518;2022-07-23T03:14:57;1019.9100626862511;;;23.01;55.382474485705224
18472;BME280;9365;48.258;12.518;2022-07-23T03:15:58;1019.8833617904348;;;23.01;54.902172643493685
18472;BME280;9365;48.258;12.518;2022-07-23T03:16:59;1019.9909525161813;;;23.0;55.21140577737957
18472;BME280;9365;48.258;12.518;2022-07-23T03:18:00;1019.9951403300364;;;23.0;55.45697751050392
18472;BME280;9365;48.258;12.518;2022-07-23T03:19:01;1020.0168664747886;;;23.01;55.366465522290596
18472;BME280;9365;48.258;12.518;2022-07-23T03:20:02;1019.9791758039598;;;22.99;55.56831421471084
18472;BME280;9365;48.258;12.518;2022-07-23T03:21:04;1019.9598091438949;;;22.96;55.401780576379416
18472;BME280;9365;48.258;12.518;2022-07-23T03:22:05;1020.0124213835477;;;22.97;55.588832943176016
18472;BME280;9365;48.258;12.518;2022-07-23T03:23:06;1020.0173948223027;;;22.96;55.711338963935745
18472;BME280;9365;48.258;12.518;2022-07-23T03:24:07;1020.0956550842067;;;22.93;55.79565897918668
18472;BME280;9365;48.258;12.518;2022-07-23T03:25:08;1020.0689571695923;;;22.93;55.854340983967056
18472;BME280;9365;48.258;12.518;2022-07-23T03:26:09;1020.0854389000624;;;22.9;56.08778777109845
18472;BME280;9365;48.258;12.518;2022-07-23T03:27:11;1020.1000295696603;;;22.89;56.23648605846824
18472;BME280;9365;48.258;12.518;2022-07-23T03:28:12;1020.1171064637394;;;22.9;56.65292071857887
18472;BME280;9365;48.258;12.518;2022-07-23T03:29:13;1020.0854389000624;;;22.9;56.82912530071851
18472;BME280;9365;48.258;12.518;2022-07-23T03:30:14;1020.0416664530858;;;22.89;57.3725633631632
18472;BME280;9365;48.258;12.518;2022-07-23T03:31:15;1019.9982172457555;;;22.88;57.190828508883726
18472;BME280;9365;48.258;12.518;2022-07-23T03:32:15;1019.9840860225697;;;22.89;57.27114501878059
18472;BME280;9365;48.258;12.518;2022-07-23T03:33:17;1020.0215072045573;;;22.87;57.71819072886543
18472;BME280;9365;48.258;12.518;2022-07-23T03:34:18;1019.9411474393828;;;22.83;57.69502463209577
18472;BME280;9365;48.258;12.518;2022-07-23T03:35:19;1019.9039136900241;;;22.8;57.59768902639952
18472;BME280;9365;48.258;12.518;2022-07-23T03:36:20;1019.8947557040176;;;22.8;58.17343514112725
18472;BME280;9365;48.258;12.518;2022-07-23T03:37:21;1019.8963188892112;;;22.79;57.98619758904254
18472;BME280;9365;48.258;12.518;2022-07-23T03:38:22;1019.8690221113344;;;22.75;58.12820117415142
18472;BME280;9365;48.258;12.518;2022-07-23T03:39:22;1019.7656687467164;;;22.76;58.43241062378701
18472;BME280;9365;48.258;12.518;2022-07-23T03:40:23;1019.7580750879462;;;22.75;58.31991613988909
18472;BME280;9365;48.258;12.518;2022-07-23T03:41:24;1019.6921332963752;;;22.74;58.633923272527134
18472;BME280;9365;48.258;12.518;2022-07-23T03:42:25;1019.666226401042;;;22.73;58.6229057712097
18472;BME280;9365;48.258;12.518;2022-07-23T03:43:27;1019.7245735021633;;;22.73;58.75052979504303
18472;BME280;9365;48.258;12.518;2022-07-23T03:44:28;1019.7947027198886;;;22.74;58.543226876552936
18472;BME280;9365;48.258;12.518;2022-07-23T03:45:29;1019.8038593847068;;;22.73;58.50581038503283
18472;BME280;9365;48.258;12.518;2022-07-23T03:46:30;1019.8972715926724;;;22.73;58.47916983634774
18472;BME280;9365;48.258;12.518;2022-07-23T03:47:30;1020.0184476966388;;;22.77;58.560652834624875
18472;BME280;9365;48.258;12.518;2022-07-23T03:48:31;1020.0134797265611;;;22.77;58.52359368984469
18472;BME280;9365;48.258;12.518;2022-07-23T03:49:32;1020.0184476966388;;;22.77;58.68320375998391
18472;BME280;9365;48.258;12.518;2022-07-23T03:50:33;1020.1385561961317;;;22.77;58.74714160825032
18472;BME280;9365;48.258;12.518;2022-07-23T03:51:34;1020.1267659753239;;;22.75;58.68247872344869
18472;BME280;9365;48.258;12.518;2022-07-23T03:52:35;1020.2400436288353;;;22.73;58.71880613505851
18472;BME280;9365;48.258;12.518;2022-07-23T03:53:36;1020.2774369239587;;;22.71;58.60607895403177
18472;BME280;9365;48.258;12.518;2022-07-23T03:54:37;1020.3807741866157;;;22.7;58.440438504937426
18472;BME280;9365;48.258;12.518;2022-07-23T03:55:38;1020.3682028109221;;;22.7;58.62121806586567
18472;BME280;9365;48.258;12.518;2022-07-23T03:56:39;1020.4048162186415;;;22.69;58.81251419166891
18472;BME280;9365;48.258;12.518;2022-07-23T03:57:40;1020.3205632693946;;;22.68;58.4607924433235
18472;BME280;9365;48.258;12.518;2022-07-23T03:58:41;1020.3613666254461;;;22.68;58.60959901625913
18472;BME280;9365;48.258;12.518;2022-07-23T03:59:42;1020.3457051758605;;;22.7;58.32831449226329
18472;BME280;9365;48.258;12.518;2022-07-23T04:00:43;1020.3399683802127;;;22.71;58.18504737379951
18472;BME280;9365;48.258;12.518;2022-07-23T04:01:44;1020.3807741866157;;;22.7;58.15272361171772
18472;BME280;9365;48.258;12.518;2022-07-23T04:02:45;1020.4116531006398;;;22.71;58.13685653973065
18472;BME280;9365;48.258;12.518;2022-07-23T04:03:46;1020.4208066854824;;;22.7;58.17403666624959
18472;BME280;9365;48.258;12.518;2022-07-23T04:04:46;1020.3857373111798;;;22.7;58.333642430748284
18472;BME280;9365;48.258;12.518;2022-07-23T04:05:47;1020.4322752532009;;;22.68;58.32736319995372
18472;BME280;9365;48.258;12.518;2022-07-23T04:06:48;1020.4406568187097;;;22.68;58.3595674538106
18472;BME280;9365;48.258;12.518;2022-07-23T04:07:49;1020.3914724303493;;;22.69;58.301080890246226
18472;BME280;9365;48.258;12.518;2022-07-23T04:08:50;1020.3689753404693;;;22.69;58.189312660780026
18472;BME280;9365;48.258;12.518;2022-07-23T04:09:51;1020.4040442027327;;;22.69;58.22684540523653